Time;durP1;ratioP1;P1;durP2;ratioP2;P2;SDS_P1;SDS_P2;PMS_P1;PMS_P2;Temp;Humidity;BMP_temperature;BMP_pressure;BME280_temperature;BME280_humidity;BME280_pressure;Samples;Min_cycle;Max_cycle;Signal;HPM_P1;HPM_P2
2024/04/04 00:01:41;;;;;;;2.40;1.27;;;;;;;;;;5069439;28;20632;-57
2024/04/04 00:04:07;;;;;;;2.05;1.42;;;;;;;;;;5068789;28;20685;-57
2024/04/04 00:06:36;;;;;;;2.03;1.33;;;;;;;;;;5068927;28;20202;-57
2024/04/04 00:09:02;;;;;;;3.83;1.70;;;;;;;;;;5068831;28;20205;-58
2024/04/04 00:11:28;;;;;;;2.25;1.58;;;;;;;;;;5068845;28;20202;-56
2024/04/04 00:13:55;;;;;;;1.77;1.30;;;;;;;;;;5068582;28;20195;-58
2024/04/04 00:16:22;;;;;;;1.65;1.45;;;;;;;;;;5069036;28;20207;-57
2024/04/04 00:18:48;;;;;;;1.98;1.23;;;;;;;;;;5068681;28;20201;-55
2024/04/04 00:21:14;;;;;;;1.48;1.38;;;;;;;;;;5069045;28;20207;-56
2024/04/04 00:23:40;;;;;;;1.58;0.90;;;;;;;;;;5068995;28;20205;-57
2024/04/04 00:26:06;;;;;;;1.80;0.90;;;;;;;;;;5069063;28;20226;-57
2024/04/04 00:28:32;;;;;;;1.83;1.05;;;;;;;;;;5068643;28;20213;-58
2024/04/04 00:31:00;;;;;;;0.93;0.93;;;;;;;;;;5068542;28;20686;-57
2024/04/04 00:33:27;;;;;;;2.75;1.48;;;;;;;;;;5068997;28;20207;-58
2024/04/04 00:35:53;;;;;;;1.55;1.45;;;;;;;;;;5068663;28;20226;-57
2024/04/04 00:38:19;;;;;;;1.85;1.65;;;;;;;;;;5068647;28;20207;-58
2024/04/04 00:40:45;;;;;;;3.70;1.83;;;;;;;;;;5068536;28;20218;-57
2024/04/04 00:43:11;;;;;;;3.38;1.98;;;;;;;;;;5068592;28;20242;-59
2024/04/04 00:45:38;;;;;;;3.45;1.20;;;;;;;;;;5068130;28;20213;-57
2024/04/04 00:48:05;;;;;;;2.30;2.10;;;;;;;;;;5068515;28;20199;-57
2024/04/04 00:50:32;;;;;;;2.08;1.70;;;;;;;;;;5067799;28;20207;-55
2024/04/04 00:52:58;;;;;;;1.60;1.50;;;;;;;;;;5068235;28;20206;-57
2024/04/04 00:55:24;;;;;;;1.85;1.58;;;;;;;;;;5068244;28;20206;-57
2024/04/04 00:57:51;;;;;;;2.83;1.65;;;;;;;;;;5032492;28;20199;-58
2024/04/04 01:00:17;;;;;;;2.05;1.73;;;;;;;;;;5067805;28;20297;-57
2024/04/04 01:02:43;;;;;;;1.88;1.58;;;;;;;;;;5066589;28;20786;-57
2024/04/04 01:05:11;;;;;;;2.47;1.88;;;;;;;;;;5068275;28;20216;-58
2024/04/04 01:07:37;;;;;;;2.38;2.00;;;;;;;;;;5068424;28;20277;-58
2024/04/04 01:10:04;;;;;;;2.67;2.00;;;;;;;;;;5067931;28;20290;-56
2024/04/04 01:12:30;;;;;;;3.65;2.17;;;;;;;;;;5067692;28;20252;-58
2024/04/04 01:14:56;;;;;;;4.05;2.33;;;;;;;;;;5067473;28;20594;-56
2024/04/04 01:17:22;;;;;;;2.83;1.98;;;;;;;;;;5068000;28;20225;-58
2024/04/04 01:19:49;;;;;;;2.33;1.40;;;;;;;;;;5067455;28;20592;-57
2024/04/04 01:22:16;;;;;;;1.20;1.10;;;;;;;;;;5032346;28;20741;-57
2024/04/04 01:24:44;;;;;;;2.67;2.30;;;;;;;;;;5067469;28;20227;-58
2024/04/04 01:27:09;;;;;;;3.33;1.83;;;;;;;;;;5067679;28;20606;-57
2024/04/04 01:29:36;;;;;;;1.52;1.42;;;;;;;;;;5067352;28;20214;-57
2024/04/04 01:32:01;;;;;;;1.65;1.55;;;;;;;;;;5067562;28;20213;-58
2024/04/04 01:34:28;;;;;;;1.80;1.70;;;;;;;;;;5067393;28;20286;-58
2024/04/04 01:36:54;;;;;;;3.05;2.00;;;;;;;;;;5067225;28;20195;-56
2024/04/04 01:39:20;;;;;;;1.67;1.38;;;;;;;;;;5067160;28;20710;-58
2024/04/04 01:41:47;;;;;;;2.85;1.63;;;;;;;;;;5066868;28;20215;-58
2024/04/04 01:44:14;;;;;;;4.70;1.80;;;;;;;;;;5066952;28;20299;-58
2024/04/04 01:46:39;;;;;;;1.70;1.60;;;;;;;;;;5066820;28;20203;-57
2024/04/04 01:49:06;;;;;;;2.60;2.00;;;;;;;;;;5067247;28;20221;-58
2024/04/04 01:51:32;;;;;;;3.72;2.20;;;;;;;;;;5067000;28;20202;-57
2024/04/04 01:53:58;;;;;;;2.00;1.80;;;;;;;;;;5066998;28;20202;-57
2024/04/04 01:56:24;;;;;;;2.15;1.50;;;;;;;;;;5066953;28;20273;-56
2024/04/04 01:58:52;;;;;;;2.00;1.80;;;;;;;;;;5066793;28;20246;-57
2024/04/04 02:01:17;;;;;;;2.47;1.80;;;;;;;;;;5066846;28;20573;-57
2024/04/04 02:03:44;;;;;;;3.30;2.00;;;;;;;;;;5067048;28;20241;-57
2024/04/04 02:06:09;;;;;;;2.70;2.08;;;;;;;;;;5066880;28;20203;-58
2024/04/04 02:08:36;;;;;;;2.08;1.58;;;;;;;;;;5066656;28;20213;-58
2024/04/04 02:11:03;;;;;;;1.50;1.35;;;;;;;;;;5066950;28;20203;-57
2024/04/04 02:13:30;;;;;;;2.08;1.30;;;;;;;;;;5030864;28;20233;-58
2024/04/04 02:15:57;;;;;;;2.42;1.85;;;;;;;;;;5066896;28;20199;-58
2024/04/04 02:18:24;;;;;;;2.20;1.27;;;;;;;;;;5066879;28;20202;-58
2024/04/04 02:20:50;;;;;;;2.13;1.42;;;;;;;;;;5066830;28;20889;-58
2024/04/04 02:23:16;;;;;;;2.45;1.33;;;;;;;;;;5066483;28;20351;-57
2024/04/04 02:25:42;;;;;;;3.47;1.80;;;;;;;;;;5047853;28;20219;-57
2024/04/04 02:28:10;;;;;;;1.73;1.42;;;;;;;;;;5066529;28;20241;-58
2024/04/04 02:30:36;;;;;;;1.63;1.52;;;;;;;;;;5066669;28;20234;-57
2024/04/04 02:33:05;;;;;;;2.88;1.55;;;;;;;;;;5066878;28;20209;-58
2024/04/04 02:35:30;;;;;;;2.25;2.00;;;;;;;;;;5066505;28;20578;-58
2024/04/04 02:37:57;;;;;;;2.55;1.75;;;;;;;;;;5066447;28;20206;-57
2024/04/04 02:40:23;;;;;;;5.28;2.33;;;;;;;;;;5066543;28;20195;-57
2024/04/04 02:42:49;;;;;;;2.17;2.05;;;;;;;;;;5066364;28;20989;-58
2024/04/04 02:45:16;;;;;;;2.70;2.40;;;;;;;;;;5066326;28;20202;-58
2024/04/04 02:47:42;;;;;;;3.17;2.15;;;;;;;;;;5066348;28;20828;-58
2024/04/04 02:50:09;;;;;;;1.70;1.45;;;;;;;;;;5047240;28;20195;-57
2024/04/04 02:52:36;;;;;;;1.45;1.35;;;;;;;;;;5047385;28;20815;-58
2024/04/04 02:55:01;;;;;;;1.95;1.52;;;;;;;;;;5066378;28;20199;-58
2024/04/04 02:57:28;;;;;;;2.03;1.40;;;;;;;;;;5066153;28;20692;-58
2024/04/04 02:59:53;;;;;;;1.95;1.10;;;;;;;;;;5066062;28;20203;-57
2024/04/04 03:02:20;;;;;;;1.80;1.20;;;;;;;;;;5030718;28;20226;-58
2024/04/04 03:04:46;;;;;;;2.10;1.77;;;;;;;;;;5066423;28;20203;-58
2024/04/04 03:07:14;;;;;;;2.75;1.40;;;;;;;;;;5066575;28;20209;-58
2024/04/04 03:09:39;;;;;;;2.35;1.30;;;;;;;;;;5066519;28;20203;-58
2024/04/04 03:12:06;;;;;;;1.50;1.15;;;;;;;;;;5066173;28;20210;-56
2024/04/04 03:14:32;;;;;;;2.70;1.52;;;;;;;;;;5066285;28;20210;-57
2024/04/04 03:16:58;;;;;;;2.33;1.33;;;;;;;;;;5066166;28;20207;-58
2024/04/04 03:19:24;;;;;;;1.15;1.02;;;;;;;;;;5066512;28;20199;-57
2024/04/04 03:21:50;;;;;;;2.03;1.40;;;;;;;;;;5066126;28;20261;-57
2024/04/04 03:24:17;;;;;;;2.03;1.27;;;;;;;;;;5065888;28;20199;-58
2024/04/04 03:26:44;;;;;;;2.15;1.08;;;;;;;;;;5069705;28;20256;-58
2024/04/04 03:29:09;;;;;;;2.17;0.90;;;;;;;;;;5069656;28;20203;-58
2024/04/04 03:31:36;;;;;;;1.88;1.00;;;;;;;;;;5069770;28;20699;-57
2024/04/04 03:34:01;;;;;;;0.85;0.85;;;;;;;;;;5069834;28;20203;-58
2024/04/04 03:36:28;;;;;;;1.55;1.10;;;;;;;;;;5069747;28;20751;-58
2024/04/04 03:38:55;;;;;;;1.88;1.52;;;;;;;;;;5068967;28;20253;-57
2024/04/04 03:41:23;;;;;;;2.58;1.38;;;;;;;;;;5070077;28;20225;-58
2024/04/04 03:43:48;;;;;;;2.72;1.55;;;;;;;;;;5069074;28;20234;-57
2024/04/04 03:46:15;;;;;;;2.10;1.52;;;;;;;;;;5069611;28;20214;-58
2024/04/04 03:48:41;;;;;;;2.47;1.98;;;;;;;;;;5069487;28;20195;-58
2024/04/04 03:51:08;;;;;;;2.13;1.75;;;;;;;;;;5069390;28;20202;-56
2024/04/04 03:53:33;;;;;;;2.05;1.85;;;;;;;;;;5069138;28;20207;-57
2024/04/04 03:56:00;;;;;;;3.28;1.80;;;;;;;;;;5033500;28;20213;-58
2024/04/04 03:58:27;;;;;;;3.10;2.33;;;;;;;;;;5069201;28;20257;-58
2024/04/04 04:00:54;;;;;;;2.60;1.92;;;;;;;;;;5068932;28;20368;-57
2024/04/04 04:03:19;;;;;;;1.63;1.52;;;;;;;;;;5069245;28;20269;-58
2024/04/04 04:05:46;;;;;;;1.40;1.30;;;;;;;;;;5069367;28;20679;-57
2024/04/04 04:08:11;;;;;;;1.63;1.50;;;;;;;;;;5068956;28;20206;-58
2024/04/04 04:10:38;;;;;;;2.00;1.80;;;;;;;;;;5049912;28;20218;-58
2024/04/04 04:13:03;;;;;;;2.60;2.00;;;;;;;;;;5068956;28;20202;-58
2024/04/04 04:15:31;;;;;;;2.15;1.85;;;;;;;;;;5068476;28;20298;-58
2024/04/04 04:17:57;;;;;;;1.85;1.75;;;;;;;;;;5069033;28;20202;-56
2024/04/04 04:23:07;;;;;;;2.50;2.00;;;;;;;;;;5068746;28;20232;-57
2024/04/04 04:25:34;;;;;;;2.50;2.28;;;;;;;;;;5068520;28;20223;-57
2024/04/04 04:27:59;;;;;;;2.58;2.22;;;;;;;;;;5068520;28;20694;-58
2024/04/04 04:30:26;;;;;;;2.58;2.38;;;;;;;;;;5068519;28;20195;-57
2024/04/04 04:32:53;;;;;;;2.00;1.80;;;;;;;;;;5068704;28;20202;-56
2024/04/04 04:35:22;;;;;;;4.28;1.63;;;;;;;;;;5068668;28;20286;-58
2024/04/04 04:37:48;;;;;;;2.42;2.22;;;;;;;;;;5068205;28;20235;-57
2024/04/04 04:40:14;;;;;;;2.42;2.00;;;;;;;;;;5068120;28;20340;-58
2024/04/04 04:42:40;;;;;;;4.03;3.25;;;;;;;;;;5068634;28;20235;-58
2024/04/04 04:45:07;;;;;;;1.77;1.67;;;;;;;;;;5068635;28;20234;-56
2024/04/04 04:47:32;;;;;;;3.40;1.70;;;;;;;;;;5068499;28;20234;-58
2024/04/04 04:50:00;;;;;;;4.25;1.92;;;;;;;;;;5068496;28;20242;-57
2024/04/04 04:52:26;;;;;;;1.50;1.40;;;;;;;;;;5068400;28;20209;-56
2024/04/04 04:54:52;;;;;;;2.28;1.67;;;;;;;;;;5068753;28;20290;-56
2024/04/04 04:57:18;;;;;;;2.05;1.77;;;;;;;;;;5049447;28;20195;-55
2024/04/04 04:59:44;;;;;;;2.28;1.67;;;;;;;;;;5068696;28;20765;-58
2024/04/04 05:02:10;;;;;;;2.72;1.95;;;;;;;;;;5049256;28;21001;-57
2024/04/04 05:04:37;;;;;;;2.03;1.60;;;;;;;;;;5067650;28;20235;-58
2024/04/04 05:07:04;;;;;;;3.38;2.03;;;;;;;;;;5067768;28;20740;-56
2024/04/04 05:09:30;;;;;;;2.70;1.95;;;;;;;;;;5067915;28;20203;-55
2024/04/04 05:11:56;;;;;;;2.15;1.63;;;;;;;;;;5067454;28;20195;-57
2024/04/04 05:14:22;;;;;;;2.63;1.50;;;;;;;;;;5067942;28;20217;-56
2024/04/04 05:16:49;;;;;;;1.83;1.67;;;;;;;;;;5067636;28;20191;-55
2024/04/04 05:19:17;;;;;;;3.22;1.75;;;;;;;;;;5067817;28;20862;-55
2024/04/04 05:21:42;;;;;;;8.40;4.10;;;;;;;;;;5067391;28;20675;-55
2024/04/04 05:24:10;;;;;;;2.58;2.38;;;;;;;;;;5067605;28;20236;-52
2024/04/04 05:26:36;;;;;;;4.13;2.15;;;;;;;;;;5067335;28;20223;-56
2024/04/04 05:29:03;;;;;;;2.97;1.90;;;;;;;;;;5067227;28;20235;-55
2024/04/04 05:31:28;;;;;;;5.95;1.83;;;;;;;;;;5067290;28;20213;-58
2024/04/04 05:33:55;;;;;;;4.30;1.80;;;;;;;;;;5067443;28;20211;-55
2024/04/04 05:36:21;;;;;;;2.17;1.83;;;;;;;;;;5067387;28;20239;-56
2024/04/04 05:38:48;;;;;;;2.42;1.77;;;;;;;;;;5067096;28;20292;-56
2024/04/04 05:41:14;;;;;;;5.28;2.33;;;;;;;;;;5067158;28;20201;-56
2024/04/04 05:43:41;;;;;;;2.83;2.53;;;;;;;;;;5031039;28;20242;-55
2024/04/04 05:46:07;;;;;;;4.60;2.35;;;;;;;;;;5067171;28;20293;-54
2024/04/04 05:48:33;;;;;;;2.80;2.17;;;;;;;;;;5066423;28;20432;-55
2024/04/04 05:51:01;;;;;;;2.92;2.00;;;;;;;;;;5067207;28;20203;-57
2024/04/04 05:53:27;;;;;;;3.25;2.45;;;;;;;;;;5067138;28;20289;-55
2024/04/04 05:55:53;;;;;;;4.88;4.32;;;;;;;;;;5066723;28;20282;-54
2024/04/04 05:58:21;;;;;;;5.07;2.00;;;;;;;;;;5066932;28;20301;-57
2024/04/04 06:00:47;;;;;;;2.10;1.55;;;;;;;;;;5067223;28;20687;-56
2024/04/04 06:03:14;;;;;;;3.03;2.13;;;;;;;;;;5066414;28;20226;-56
2024/04/04 06:05:40;;;;;;;4.30;1.75;;;;;;;;;;5066932;28;20285;-57
2024/04/04 06:08:07;;;;;;;2.38;1.38;;;;;;;;;;5066824;28;21054;-55
2024/04/04 06:10:32;;;;;;;3.65;1.80;;;;;;;;;;5066284;28;20231;-54
2024/04/04 06:12:59;;;;;;;3.03;1.90;;;;;;;;;;5066447;28;20695;-55
2024/04/04 06:15:26;;;;;;;2.08;1.35;;;;;;;;;;5066660;28;20199;-56
2024/04/04 06:17:53;;;;;;;2.53;1.60;;;;;;;;;;5066507;28;20207;-55
2024/04/04 06:20:18;;;;;;;2.70;1.73;;;;;;;;;;5066422;28;20214;-56
2024/04/04 06:22:45;;;;;;;3.88;1.80;;;;;;;;;;5066385;28;20203;-53
2024/04/04 06:25:10;;;;;;;2.30;1.48;;;;;;;;;;5030811;28;20219;-56
2024/04/04 06:27:37;;;;;;;2.10;1.75;;;;;;;;;;5066076;28;20693;-55
2024/04/04 06:30:02;;;;;;;4.13;2.45;;;;;;;;;;5066605;28;20203;-54
2024/04/04 06:32:30;;;;;;;2.63;1.88;;;;;;;;;;5030445;28;20209;-55
2024/04/04 06:34:56;;;;;;;3.85;2.90;;;;;;;;;;5066196;28;20286;-55
2024/04/04 06:37:22;;;;;;;3.40;2.28;;;;;;;;;;5066165;28;20294;-55
2024/04/04 06:39:48;;;;;;;3.22;2.00;;;;;;;;;;5066187;28;20194;-55
2024/04/04 06:42:15;;;;;;;3.33;2.78;;;;;;;;;;5066344;28;20648;-55
2024/04/04 06:44:41;;;;;;;3.78;2.58;;;;;;;;;;5066163;28;20740;-54
2024/04/04 06:47:07;;;;;;;5.13;2.75;;;;;;;;;;5066329;28;20206;-55
2024/04/04 06:49:34;;;;;;;4.50;3.78;;;;;;;;;;5066386;28;20207;-54
2024/04/04 06:52:01;;;;;;;2.92;2.10;;;;;;;;;;5065876;28;20676;-54
2024/04/04 06:54:27;;;;;;;2.90;1.88;;;;;;;;;;5065846;28;20687;-54
2024/04/04 06:56:53;;;;;;;3.55;2.42;;;;;;;;;;5065973;28;20221;-53
2024/04/04 06:59:19;;;;;;;4.72;1.92;;;;;;;;;;5067256;28;20241;-54
2024/04/04 07:01:45;;;;;;;4.05;1.98;;;;;;;;;;5070315;28;20255;-54
2024/04/04 07:04:11;;;;;;;4.95;1.67;;;;;;;;;;5069892;28;20222;-54
2024/04/04 07:06:39;;;;;;;4.50;2.33;;;;;;;;;;5070276;28;20567;-51
2024/04/04 07:09:06;;;;;;;2.42;1.90;;;;;;;;;;5069912;28;20697;-51
2024/04/04 07:11:33;;;;;;;2.22;1.55;;;;;;;;;;5069826;28;20210;-55
2024/04/04 07:13:58;;;;;;;2.97;2.08;;;;;;;;;;5069867;28;20699;-54
2024/04/04 07:16:25;;;;;;;1.75;1.52;;;;;;;;;;5050797;28;20205;-52
2024/04/04 07:18:51;;;;;;;4.32;1.83;;;;;;;;;;5069956;28;20207;-55
2024/04/04 07:21:17;;;;;;;3.25;2.03;;;;;;;;;;5069564;28;20203;-55
2024/04/04 07:23:44;;;;;;;2.00;1.35;;;;;;;;;;5069393;28;20226;-53
2024/04/04 07:26:11;;;;;;;4.28;1.48;;;;;;;;;;5069223;28;20805;-56
2024/04/04 07:28:36;;;;;;;2.33;1.17;;;;;;;;;;5069198;28;20205;-53
2024/04/04 07:31:03;;;;;;;2.88;1.42;;;;;;;;;;5069327;28;20211;-52
2024/04/04 07:33:29;;;;;;;4.05;1.60;;;;;;;;;;5069436;28;20683;-55
2024/04/04 07:35:55;;;;;;;5.60;1.55;;;;;;;;;;5069418;28;20199;-52
2024/04/04 07:38:21;;;;;;;1.50;1.30;;;;;;;;;;5069487;28;20650;-52
2024/04/04 07:40:49;;;;;;;4.40;1.38;;;;;;;;;;5069106;28;20286;-54
2024/04/04 07:43:14;;;;;;;1.63;1.15;;;;;;;;;;5069213;28;20257;-54
2024/04/04 07:45:42;;;;;;;2.47;1.23;;;;;;;;;;5049920;28;20613;-53
2024/04/04 07:48:09;;;;;;;2.05;1.30;;;;;;;;;;5069066;28;20199;-54
2024/04/04 07:50:35;;;;;;;2.25;1.30;;;;;;;;;;5069024;28;20260;-51
2024/04/04 07:53:02;;;;;;;0.93;0.85;;;;;;;;;;5049940;28;20203;-50
2024/04/04 07:55:29;;;;;;;3.65;1.40;;;;;;;;;;5068954;28;20590;-55
2024/04/04 07:57:56;;;;;;;2.17;1.27;;;;;;;;;;5068812;28;20203;-52
2024/04/04 08:00:22;;;;;;;2.45;1.20;;;;;;;;;;5069323;28;20572;-54
2024/04/04 08:02:48;;;;;;;1.35;1.15;;;;;;;;;;5068864;28;20336;-52
2024/04/04 08:05:15;;;;;;;1.45;1.13;;;;;;;;;;5068797;28;20749;-55
2024/04/04 08:07:41;;;;;;;2.38;1.33;;;;;;;;;;5068745;28;20195;-53
2024/04/04 08:10:08;;;;;;;2.45;1.00;;;;;;;;;;5068920;28;20735;-56
2024/04/04 08:12:35;;;;;;;2.78;1.58;;;;;;;;;;5067960;28;20695;-54
2024/04/04 08:15:03;;;;;;;4.03;1.90;;;;;;;;;;5068816;28;20244;-53
2024/04/04 08:17:29;;;;;;;2.17;1.73;;;;;;;;;;5033278;28;20274;-52
2024/04/04 08:19:57;;;;;;;1.75;1.50;;;;;;;;;;5068629;28;20755;-51
2024/04/04 08:22:22;;;;;;;2.45;1.40;;;;;;;;;;5068520;28;20203;-51
2024/04/04 08:24:49;;;;;;;1.33;1.23;;;;;;;;;;5068115;28;20300;-53
2024/04/04 08:27:14;;;;;;;2.63;1.38;;;;;;;;;;5068258;28;20257;-54
2024/04/04 08:29:41;;;;;;;2.75;1.23;;;;;;;;;;5068595;28;20667;-55
2024/04/04 08:32:08;;;;;;;2.50;1.15;;;;;;;;;;5068279;28;20629;-54
2024/04/04 08:34:35;;;;;;;2.80;1.40;;;;;;;;;;5068404;28;20271;-54
2024/04/04 08:37:00;;;;;;;2.00;1.23;;;;;;;;;;5068677;28;20203;-52
2024/04/04 08:39:27;;;;;;;2.35;1.10;;;;;;;;;;5049217;28;20587;-54
2024/04/04 08:41:53;;;;;;;1.95;1.25;;;;;;;;;;5068424;28;20234;-55
2024/04/04 08:44:21;;;;;;;2.08;1.42;;;;;;;;;;5068550;28;20230;-51
2024/04/04 08:46:47;;;;;;;3.67;1.55;;;;;;;;;;5068337;28;20199;-54
2024/04/04 08:49:17;;;;;;;3.08;1.38;;;;;;;;;;5068131;28;20210;-53
2024/04/04 08:51:42;;;;;;;1.73;1.30;;;;;;;;;;5068046;28;20648;-50
2024/04/04 08:54:09;;;;;;;2.20;1.52;;;;;;;;;;5068193;28;20195;-54
2024/04/04 08:56:35;;;;;;;3.15;1.60;;;;;;;;;;5067675;28;20210;-51
2024/04/04 08:59:02;;;;;;;2.70;1.30;;;;;;;;;;5032373;28;20211;-53
2024/04/04 09:01:27;;;;;;;4.32;1.92;;;;;;;;;;5032160;28;20587;-54
2024/04/04 09:03:54;;;;;;;4.35;1.55;;;;;;;;;;5067737;28;20226;-51
2024/04/04 09:06:24;;;;;;;3.63;1.65;;;;;;;;;;5067821;28;20672;-53
2024/04/04 09:08:53;;;;;;;3.30;1.45;;;;;;;;;;5067601;28;20242;-53
2024/04/04 09:11:23;;;;;;;3.13;1.80;;;;;;;;;;5067756;28;20759;-53
2024/04/04 09:13:50;;;;;;;3.85;1.85;;;;;;;;;;5067595;28;20848;-52
2024/04/04 09:16:20;;;;;;;4.47;1.73;;;;;;;;;;5067752;28;20194;-55
2024/04/04 09:18:46;;;;;;;5.03;1.42;;;;;;;;;;5067569;28;20594;-53
2024/04/04 09:21:12;;;;;;;3.83;1.70;;;;;;;;;;5067588;28;20203;-56
2024/04/04 09:23:40;;;;;;;2.92;1.60;;;;;;;;;;5066239;28;20245;-55
2024/04/04 09:26:06;;;;;;;3.15;1.88;;;;;;;;;;5067022;28;20280;-54
2024/04/04 09:28:33;;;;;;;1.92;1.30;;;;;;;;;;5067283;28;20202;-52
2024/04/04 09:31:00;;;;;;;2.60;1.40;;;;;;;;;;5067038;28;20679;-54
2024/04/04 09:33:28;;;;;;;2.65;1.23;;;;;;;;;;5067352;28;20325;-53
2024/04/04 09:35:55;;;;;;;3.33;1.30;;;;;;;;;;5066904;28;20207;-55
2024/04/04 09:38:22;;;;;;;3.08;1.30;;;;;;;;;;5067113;28;20210;-54
2024/04/04 09:40:50;;;;;;;2.10;1.33;;;;;;;;;;5066690;28;20198;-51
2024/04/04 09:43:26;;;;;;;1.58;1.25;;;;;;;;;;5083958;27;20951;-55
2024/04/04 09:45:52;;;;;;;3.10;1.23;;;;;;;;;;5083598;28;20753;-52
2024/04/04 09:48:19;;;;;;;1.60;1.20;;;;;;;;;;5064312;28;20285;-54
2024/04/04 09:50:45;;;;;;;2.10;1.40;;;;;;;;;;5083880;28;20303;-53
2024/04/04 09:53:11;;;;;;;3.20;1.20;;;;;;;;;;5083633;28;20301;-56
2024/04/04 09:55:37;;;;;;;4.22;1.35;;;;;;;;;;5083807;28;20202;-55
2024/04/04 09:58:04;;;;;;;1.90;1.23;;;;;;;;;;5083894;28;20209;-55
2024/04/04 10:00:32;;;;;;;1.77;1.40;;;;;;;;;;5083569;28;20659;-53
2024/04/04 10:03:00;;;;;;;1.85;1.05;;;;;;;;;;5083359;28;20225;-57
2024/04/04 10:05:33;;;;;;;2.95;1.23;;;;;;;;;;5083387;28;20291;-52
2024/04/04 10:08:07;;;;;;;2.67;1.20;;;;;;;;;;5083284;28;20573;-56
2024/04/04 10:10:32;;;;;;;2.58;1.20;;;;;;;;;;5083039;28;20202;-55
2024/04/04 10:13:05;;;;;;;3.63;1.30;;;;;;;;;;5083417;28;20203;-55
2024/04/04 10:15:39;;;;;;;2.80;1.40;;;;;;;;;;5083080;28;20201;-55
2024/04/04 10:18:10;;;;;;;1.33;1.00;;;;;;;;;;5083195;28;20288;-57
2024/04/04 10:20:37;;;;;;;2.80;1.38;;;;;;;;;;5082942;28;20198;-55
2024/04/04 10:23:05;;;;;;;2.85;1.13;;;;;;;;;;5082696;28;20320;-57
2024/04/04 10:25:31;;;;;;;2.08;1.30;;;;;;;;;;5083008;28;20222;-53
2024/04/04 10:28:04;;;;;;;3.30;1.30;;;;;;;;;;5082861;28;20209;-55
2024/04/04 10:30:35;;;;;;;2.08;1.20;;;;;;;;;;5083100;28;20281;-56
2024/04/04 10:33:06;;;;;;;1.75;1.17;;;;;;;;;;5082903;28;20214;-57
2024/04/04 10:35:32;;;;;;;2.63;1.25;;;;;;;;;;5082655;28;20259;-56
2024/04/04 10:38:06;;;;;;;3.17;1.33;;;;;;;;;;5082924;28;20210;-56
2024/04/04 10:40:31;;;;;;;1.88;1.40;;;;;;;;;;5082737;28;20202;-55
2024/04/04 10:42:58;;;;;;;3.05;1.15;;;;;;;;;;5082511;28;20248;-55
2024/04/04 10:45:24;;;;;;;1.95;1.13;;;;;;;;;;5082502;28;20195;-57
2024/04/04 10:47:56;;;;;;;3.47;1.42;;;;;;;;;;5082521;28;20211;-54
2024/04/04 10:50:22;;;;;;;1.95;1.40;;;;;;;;;;5082459;28;20273;-54
2024/04/04 10:52:49;;;;;;;2.58;1.42;;;;;;;;;;5079877;28;20203;-56
2024/04/04 10:55:14;;;;;;;5.43;1.65;;;;;;;;;;5068659;28;20198;-55
2024/04/04 10:57:41;;;;;;;1.63;1.40;;;;;;;;;;5069007;28;20300;-56
2024/04/04 11:00:10;;;;;;;1.40;1.25;;;;;;;;;;5068829;28;20199;-56
2024/04/04 11:02:36;;;;;;;2.15;1.30;;;;;;;;;;5068515;28;20258;-56
2024/04/04 11:05:07;;;;;;;3.03;1.27;;;;;;;;;;5068735;28;20285;-53
2024/04/04 11:07:33;;;;;;;1.42;1.05;;;;;;;;;;5068512;28;20683;-55
2024/04/04 11:09:59;;;;;;;2.55;1.67;;;;;;;;;;5068784;28;20286;-54
2024/04/04 11:12:26;;;;;;;2.45;1.48;;;;;;;;;;5068530;28;20756;-57
2024/04/04 11:14:52;;;;;;;2.00;1.58;;;;;;;;;;5068521;28;20199;-56
2024/04/04 11:17:21;;;;;;;1.83;1.30;;;;;;;;;;5032625;28;20260;-55
2024/04/04 11:19:46;;;;;;;1.92;1.35;;;;;;;;;;5068223;28;20226;-54
2024/04/04 11:22:14;;;;;;;1.83;1.30;;;;;;;;;;5068646;28;20730;-55
2024/04/04 11:24:40;;;;;;;1.98;1.38;;;;;;;;;;5068288;28;20348;-54
2024/04/04 11:27:06;;;;;;;2.25;1.02;;;;;;;;;;5068503;28;20240;-56
2024/04/04 11:29:32;;;;;;;0.85;0.80;;;;;;;;;;5068229;28;20199;-55
2024/04/04 11:31:59;;;;;;;2.30;1.23;;;;;;;;;;5068143;28;20259;-56
2024/04/04 11:34:24;;;;;;;4.22;1.05;;;;;;;;;;5068265;28;20614;-55
2024/04/04 11:36:51;;;;;;;3.28;1.15;;;;;;;;;;5068173;28;20195;-53
2024/04/04 11:39:18;;;;;;;2.83;1.00;;;;;;;;;;5067763;28;20202;-57
2024/04/04 11:41:46;;;;;;;1.50;1.10;;;;;;;;;;5068082;28;20327;-53
2024/04/04 11:44:12;;;;;;;1.85;1.10;;;;;;;;;;5048671;28;20199;-56
2024/04/04 11:46:38;;;;;;;2.63;1.10;;;;;;;;;;5067827;28;20203;-54
2024/04/04 11:49:04;;;;;;;1.98;0.90;;;;;;;;;;5067990;28;20231;-56
2024/04/04 11:51:31;;;;;;;1.55;1.10;;;;;;;;;;5067689;28;21033;-55
2024/04/04 11:53:56;;;;;;;1.73;0.82;;;;;;;;;;5067849;28;20205;-54
2024/04/04 11:56:25;;;;;;;5.15;1.05;;;;;;;;;;5067811;28;20198;-55
2024/04/04 11:58:51;;;;;;;1.02;0.90;;;;;;;;;;5067632;28;20202;-55
2024/04/04 12:01:17;;;;;;;2.00;1.33;;;;;;;;;;5031758;28;20264;-55
2024/04/04 12:03:43;;;;;;;2.42;1.10;;;;;;;;;;5048416;28;20313;-55
2024/04/04 12:06:10;;;;;;;1.33;0.90;;;;;;;;;;5066785;28;20281;-57
2024/04/04 12:08:35;;;;;;;2.58;0.82;;;;;;;;;;5067394;28;20702;-55
2024/04/04 12:11:04;;;;;;;1.30;1.00;;;;;;;;;;5067635;28;20211;-55
2024/04/04 12:13:31;;;;;;;1.67;0.70;;;;;;;;;;5067252;28;20191;-55
2024/04/04 12:15:59;;;;;;;1.85;0.95;;;;;;;;;;5067535;28;20238;-56
2024/04/04 12:21:14;;;;;;;2.05;0.93;;;;;;;;;;5067537;28;20194;-55
2024/04/04 12:23:40;;;;;;;2.22;0.88;;;;;;;;;;5067456;28;20257;-50
2024/04/04 12:26:07;;;;;;;1.63;0.80;;;;;;;;;;5048060;28;20231;-56
2024/04/04 12:28:35;;;;;;;2.63;0.98;;;;;;;;;;5032058;28;20206;-55
2024/04/04 12:31:00;;;;;;;1.23;0.85;;;;;;;;;;5067414;28;20199;-55
2024/04/04 12:33:27;;;;;;;1.27;1.10;;;;;;;;;;5067231;28;20207;-56
2024/04/04 12:35:53;;;;;;;2.63;0.90;;;;;;;;;;5066877;28;20977;-53
2024/04/04 12:38:20;;;;;;;1.08;0.70;;;;;;;;;;5031875;28;20206;-55
2024/04/04 12:40:45;;;;;;;2.92;0.98;;;;;;;;;;5061599;28;20871;-55
2024/04/04 12:43:12;;;;;;;2.00;0.90;;;;;;;;;;5028155;28;20246;-55
2024/04/04 12:45:39;;;;;;;1.80;1.00;;;;;;;;;;5047060;28;20218;-54
2024/04/04 12:48:06;;;;;;;2.38;0.80;;;;;;;;;;5047277;28;20645;-55
2024/04/04 12:50:31;;;;;;;3.42;1.02;;;;;;;;;;5047126;28;20204;-56
2024/04/04 12:52:58;;;;;;;1.75;0.80;;;;;;;;;;5046958;28;20572;-56
2024/04/04 12:55:23;;;;;;;1.75;0.98;;;;;;;;;;5047177;28;20210;-55
2024/04/04 12:57:50;;;;;;;3.00;0.93;;;;;;;;;;5046579;28;20203;-56
2024/04/04 13:00:16;;;;;;;1.55;1.10;;;;;;;;;;5046461;28;20239;-54
2024/04/04 13:02:45;;;;;;;1.27;0.73;;;;;;;;;;5046890;28;20231;-54
2024/04/04 13:05:11;;;;;;;0.93;0.80;;;;;;;;;;5047161;28;20212;-56
2024/04/04 13:07:38;;;;;;;1.55;0.85;;;;;;;;;;5046608;28;20222;-55
2024/04/04 13:10:04;;;;;;;1.40;0.70;;;;;;;;;;5046240;28;20200;-55
2024/04/04 13:12:30;;;;;;;1.42;0.85;;;;;;;;;;5010720;28;20204;-56
2024/04/04 13:14:56;;;;;;;3.50;0.75;;;;;;;;;;5027257;28;20569;-54
2024/04/04 13:17:23;;;;;;;1.15;0.70;;;;;;;;;;5046524;28;20207;-53
2024/04/04 13:19:50;;;;;;;1.42;0.85;;;;;;;;;;5010794;28;20688;-53
2024/04/04 13:22:16;;;;;;;1.67;0.75;;;;;;;;;;5046300;28;20231;-55
2024/04/04 13:24:43;;;;;;;1.15;0.80;;;;;;;;;;5046427;28;20224;-54
2024/04/04 13:27:10;;;;;;;2.05;0.90;;;;;;;;;;5011158;28;20203;-54
2024/04/04 13:29:36;;;;;;;2.47;0.80;;;;;;;;;;5046084;28;20204;-55
2024/04/04 13:32:03;;;;;;;1.10;0.63;;;;;;;;;;5046299;28;20209;-53
2024/04/04 13:34:29;;;;;;;2.45;0.77;;;;;;;;;;5046347;28;20208;-53
2024/04/04 13:36:58;;;;;;;0.47;0.45;;;;;;;;;;5046062;28;20204;-56
2024/04/04 13:39:26;;;;;;;0.90;0.50;;;;;;;;;;5026984;28;20203;-54
2024/04/04 13:41:54;;;;;;;1.70;0.47;;;;;;;;;;5046043;28;20846;-57
2024/04/04 13:44:20;;;;;;;0.75;0.45;;;;;;;;;;5045911;28;20228;-56
2024/04/04 13:46:47;;;;;;;1.83;0.55;;;;;;;;;;5026898;28;20213;-54
2024/04/04 13:49:14;;;;;;;0.35;0.35;;;;;;;;;;5046293;28;20199;-54
2024/04/04 13:51:40;;;;;;;0.60;0.50;;;;;;;;;;5011154;28;20234;-54
2024/04/04 13:54:08;;;;;;;2.20;0.77;;;;;;;;;;5045964;28;20295;-56
2024/04/04 13:56:35;;;;;;;0.80;0.60;;;;;;;;;;5045979;28;20207;-54
2024/04/04 13:59:00;;;;;;;1.05;0.43;;;;;;;;;;5046132;28;20242;-54
2024/04/04 14:01:33;;;;;;;1.73;0.40;;;;;;;;;;5045707;28;20243;-55
2024/04/04 14:03:58;;;;;;;0.65;0.40;;;;;;;;;;5045874;28;20314;-52
2024/04/04 14:06:25;;;;;;;0.95;0.57;;;;;;;;;;5046155;28;20734;-56
2024/04/04 14:08:53;;;;;;;2.17;0.90;;;;;;;;;;5045977;28;20203;-55
2024/04/04 14:11:21;;;;;;;1.33;0.52;;;;;;;;;;5045976;28;20596;-56
2024/04/04 14:13:47;;;;;;;1.75;0.55;;;;;;;;;;5010378;28;20239;-56
2024/04/04 14:16:14;;;;;;;1.25;0.52;;;;;;;;;;5045904;28;20678;-55
2024/04/04 14:18:40;;;;;;;1.67;0.70;;;;;;;;;;5045968;28;20275;-53
2024/04/04 14:21:06;;;;;;;0.77;0.60;;;;;;;;;;5045940;28;21136;-52
2024/04/04 14:23:32;;;;;;;1.70;0.63;;;;;;;;;;5026808;28;20242;-55
2024/04/04 14:25:59;;;;;;;0.52;0.52;;;;;;;;;;5045565;28;20607;-55
2024/04/04 14:28:26;;;;;;;1.98;1.10;;;;;;;;;;5046557;28;20203;-54
2024/04/04 14:30:52;;;;;;;1.02;0.43;;;;;;;;;;5049257;28;20234;-55
2024/04/04 14:33:18;;;;;;;2.58;0.73;;;;;;;;;;5049659;28;20199;-53
2024/04/04 14:35:44;;;;;;;2.20;0.40;;;;;;;;;;5014057;28;20580;-56
2024/04/04 14:38:10;;;;;;;1.15;0.68;;;;;;;;;;5049370;28;20202;-55
2024/04/04 14:40:36;;;;;;;3.60;0.70;;;;;;;;;;5049035;28;20211;-56
2024/04/04 14:43:02;;;;;;;1.50;0.45;;;;;;;;;;5048986;28;20711;-56
2024/04/04 14:45:30;;;;;;;1.33;0.60;;;;;;;;;;5013416;28;20207;-56